Frontier Kotobuki — 3EXC5 — position and weather

sailwx.info

Track history (hours):
 
Tides and Currents Weather Stations Pressure Air Temp Water Temp Dewpoint Dewpoint Depression Visibility Wind Speed Wind Dir Waves Ship Positions

Frontier Kotobuki

Last reported at 2015-Jul-04 08:29 UTC. Time now 2015-Jul-28 08:28 UTC.
Position S 31°44' E 034°33'.
Warning: this ship's position is 23 days out of date.

Length 290 m; draft 16.7 m.

Type: Cargo ship. MMSI: 355036000.

Date/timePositionNaut miles runAvg speedWind from/ knotsBaromVisibWave heightAir tempDewpointWater temp
2015-Jul-04 08:29S 31°44' E 034°33'1210.8
2015-Jul-04 07:23S 31°50' E 034°21'1212.1
2015-Jul-04 06:24S 31°57' E 034°09'1011.4
2015-Jul-04 05:32S 32°01' E 033°59'1411.2
2015-Jul-04 04:18S 32°09' E 033°45'3511.0
2015-Jul-04 01:08S 32°26' E 033°10'710.8
2015-Jul-04 00:31S 32°30' E 033°03'1110.5
2015-Jul-03 23:27S 32°35' E 032°51'1010.3
2015-Jul-03 22:32S 32°40' E 032°42'1210.2
2015-Jul-03 21:21S 32°46' E 032°29'6110.4
2015-Jul-03 15:28S 33°17' E 031°27'2411.2
2015-Jul-03 13:19S 33°30' E 031°02'  
2015-Jun-30 18:33S 33°10' E 017°47'12 8.5
2015-Jun-30 17:07S 33°02' E 017°59'  
2015-Jun-28 00:12S 32°39' E 018°03'  
Track history (hours):
 
Tides and Currents Weather Stations Pressure Air Temp Water Temp Dewpoint Dewpoint Depression Visibility Wind Speed Wind Dir Waves Ship Positions

Frontier Kotobuki

Last reported at 2015-Jul-04 08:29 UTC. Time now 2015-Jul-28 08:28 UTC.
Position S 31°44' E 034°33'.
Warning: this ship's position is 23 days out of date.

Length 290 m; draft 16.7 m.

Type: Cargo ship. MMSI: 355036000.

Date/timePositionNaut miles runAvg speedWind from/ knotsBaromVisibWave heightAir tempDewpointWater temp
2015-Jul-04 08:29S 31°44' E 034°33'1210.8
2015-Jul-04 07:23S 31°50' E 034°21'1212.1
2015-Jul-04 06:24S 31°57' E 034°09'1011.4
2015-Jul-04 05:32S 32°01' E 033°59'1411.2
2015-Jul-04 04:18S 32°09' E 033°45'3511.0
2015-Jul-04 01:08S 32°26' E 033°10'710.8
2015-Jul-04 00:31S 32°30' E 033°03'1110.5
2015-Jul-03 23:27S 32°35' E 032°51'1010.3
2015-Jul-03 22:32S 32°40' E 032°42'1210.2
2015-Jul-03 21:21S 32°46' E 032°29'6110.4
2015-Jul-03 15:28S 33°17' E 031°27'2411.2
2015-Jul-03 13:19S 33°30' E 031°02'  
2015-Jun-30 18:33S 33°10' E 017°47'12 8.5
2015-Jun-30 17:07S 33°02' E 017°59'  
2015-Jun-28 00:12S 32°39' E 018°03'  

Dump ship's entire track history